Time;durP1;ratioP1;P1;durP2;ratioP2;P2;SDS_P1;SDS_P2;PMS_P1;PMS_P2;Temp;Humidity;BMP_temperature;BMP_pressure;BME280_temperature;BME280_humidity;BME280_pressure;Samples;Min_cycle;Max_cycle;Signal;HPM_P1;HPM_P2
2022/10/14 00:01:33;;;;;;;0.40;0.40;;;9.90;99.90;;;;;;5053330;28;20430;-68
2022/10/14 00:04:21;;;;;;;0.40;0.40;;;9.80;99.90;;;;;;5053833;28;20420;-68
2022/10/14 00:07:09;;;;;;;0.40;0.40;;;9.80;99.90;;;;;;5053220;28;20427;-67
2022/10/14 00:09:57;;;;;;;0.40;0.40;;;9.80;99.90;;;;;;5053259;28;20433;-67
2022/10/14 00:12:46;;;;;;;0.40;0.40;;;9.80;99.90;;;;;;5053237;28;20526;-68
2022/10/14 00:15:40;;;;;;;0.40;0.40;;;9.80;99.90;;;;;;5053415;28;20538;-68
2022/10/14 00:18:29;;;;;;;0.40;0.40;;;9.80;99.90;;;;;;5053904;28;20497;-68
2022/10/14 00:21:17;;;;;;;0.40;0.40;;;9.80;99.90;;;;;;5052788;28;20509;-68
2022/10/14 00:24:06;;;;;;;0.40;0.40;;;9.70;99.90;;;;;;5053980;28;20550;-67
2022/10/14 00:26:54;;;;;;;0.70;0.70;;;9.70;99.90;;;;;;5052798;28;20506;-67
2022/10/14 00:29:42;;;;;;;0.40;0.40;;;9.70;99.90;;;;;;5052485;28;20510;-68
2022/10/14 00:32:31;;;;;;;0.40;0.40;;;9.70;99.90;;;;;;5053173;28;20515;-68
2022/10/14 00:35:20;;;;;;;0.40;0.40;;;9.70;99.90;;;;;;5053154;28;20474;-68
2022/10/14 00:38:08;;;;;;;1.00;1.00;;;9.80;99.90;;;;;;5053219;28;20486;-67
2022/10/14 00:40:56;;;;;;;0.40;0.40;;;9.60;99.90;;;;;;5052214;28;20506;-67
2022/10/14 00:43:53;;;;;;;0.50;0.50;;;9.60;99.90;;;;;;5053123;28;20425;-68
2022/10/14 00:46:43;;;;;;;0.40;0.40;;;9.60;99.90;;;;;;5052545;28;20441;-67
2022/10/14 00:49:36;;;;;;;0.50;0.50;;;9.60;99.90;;;;;;5052204;28;20438;-67
2022/10/14 00:52:24;;;;;;;1.60;1.57;;;9.50;99.90;;;;;;5053557;28;20986;-68
2022/10/14 00:55:15;;;;;;;0.40;0.40;;;9.50;99.90;;;;;;5053559;28;20517;-67
2022/10/14 00:58:04;;;;;;;0.40;0.40;;;9.50;99.90;;;;;;5052433;28;20416;-67
2022/10/14 01:00:52;;;;;;;0.40;0.40;;;9.50;99.90;;;;;;5052493;28;20483;-67
2022/10/14 01:03:40;;;;;;;0.40;0.40;;;9.50;99.90;;;;;;5052460;28;20424;-67
2022/10/14 01:06:41;;;;;;;0.40;0.40;;;9.50;99.90;;;;;;5053210;28;20450;-68
2022/10/14 01:09:36;;;;;;;0.50;0.50;;;9.50;99.90;;;;;;5052112;28;20422;-67
2022/10/14 01:12:29;;;;;;;0.40;0.40;;;9.50;99.90;;;;;;5052569;28;20432;-67
2022/10/14 01:15:25;;;;;;;0.40;0.40;;;9.40;99.90;;;;;;5051242;28;20526;-68
2022/10/14 01:18:23;;;;;;;0.40;0.40;;;9.40;99.90;;;;;;5062853;28;20522;-68
2022/10/14 01:21:16;;;;;;;0.40;0.40;;;9.40;99.90;;;;;;5053685;28;20424;-68
2022/10/14 01:24:40;;;;;;;0.60;0.60;;;9.40;99.90;;;;;;5052538;28;20426;-68
2022/10/14 01:27:48;;;;;;;0.40;0.40;;;9.40;99.90;;;;;;5053563;28;20523;-67
2022/10/14 01:30:43;;;;;;;3.03;2.83;;;9.30;99.90;;;;;;5053676;28;20515;-67
2022/10/14 01:33:36;;;;;;;0.40;0.40;;;9.40;99.90;;;;;;5052296;28;20430;-68
2022/10/14 01:36:30;;;;;;;0.40;0.40;;;9.40;99.90;;;;;;5053416;28;20529;-68
2022/10/14 01:39:23;;;;;;;0.70;0.70;;;9.40;99.90;;;;;;5053560;28;20887;-67
2022/10/14 01:42:15;;;;;;;0.50;0.50;;;9.40;99.90;;;;;;5053468;28;20812;-68
2022/10/14 01:45:07;;;;;;;0.70;0.70;;;9.40;99.90;;;;;;5053586;28;20489;-67
2022/10/14 01:47:58;;;;;;;0.40;0.40;;;9.30;99.90;;;;;;5063130;28;20439;-68
2022/10/14 01:50:48;;;;;;;0.40;0.40;;;9.30;99.90;;;;;;5062857;28;20862;-68
2022/10/14 01:53:40;;;;;;;0.40;0.40;;;9.30;99.90;;;;;;5087459;28;20458;-67
2022/10/14 01:56:31;;;;;;;0.50;0.50;;;9.30;99.90;;;;;;5080812;28;20502;-68
2022/10/14 01:59:25;;;;;;;0.60;0.60;;;9.30;99.90;;;;;;5076076;28;20419;-67
2022/10/14 02:02:14;;;;;;;1.80;1.70;;;9.30;99.90;;;;;;5072563;28;20420;-67
2022/10/14 02:05:05;;;;;;;5.03;3.60;;;9.30;99.90;;;;;;5073225;28;20581;-68
2022/10/14 02:08:00;;;;;;;0.40;0.40;;;9.30;99.90;;;;;;5071174;28;20568;-67
2022/10/14 02:11:04;;;;;;;0.50;0.50;;;9.20;99.90;;;;;;5071763;28;20427;-68
2022/10/14 02:14:04;;;;;;;0.40;0.40;;;9.20;99.90;;;;;;5071568;28;20763;-68
2022/10/14 02:16:59;;;;;;;0.40;0.40;;;9.20;99.90;;;;;;5072107;28;20434;-67
2022/10/14 02:19:53;;;;;;;0.40;0.40;;;9.20;99.90;;;;;;5071645;28;20428;-67
2022/10/14 02:22:45;;;;;;;0.40;0.40;;;9.20;99.90;;;;;;5071761;28;20798;-68
2022/10/14 02:25:35;;;;;;;0.40;0.40;;;9.30;99.90;;;;;;5071209;28;20530;-68
2022/10/14 02:28:27;;;;;;;0.40;0.40;;;9.30;99.90;;;;;;5070813;28;20473;-67
2022/10/14 02:31:17;;;;;;;0.40;0.40;;;9.30;99.90;;;;;;5071462;28;20511;-68
2022/10/14 02:34:11;;;;;;;0.40;0.40;;;9.30;99.90;;;;;;5071140;28;20516;-68
2022/10/14 02:37:00;;;;;;;0.40;0.40;;;9.30;99.90;;;;;;5071450;28;20879;-68
2022/10/14 02:39:57;;;;;;;0.40;0.40;;;9.30;99.90;;;;;;5070561;28;20426;-67
2022/10/14 02:42:45;;;;;;;0.40;0.40;;;9.30;99.90;;;;;;5071794;28;20419;-68
2022/10/14 02:45:34;;;;;;;0.40;0.40;;;9.30;99.90;;;;;;5070901;28;20445;-67
2022/10/14 02:48:22;;;;;;;0.40;0.40;;;9.40;99.90;;;;;;5071842;28;20886;-68
2022/10/14 02:51:10;;;;;;;0.40;0.40;;;9.30;99.90;;;;;;5060183;28;20432;-67
2022/10/14 02:54:00;;;;;;;0.40;0.40;;;9.40;99.90;;;;;;5052566;28;20511;-68
2022/10/14 02:56:49;;;;;;;0.40;0.40;;;9.40;99.90;;;;;;5052888;28;20586;-67
2022/10/14 02:59:38;;;;;;;0.40;0.40;;;9.40;99.90;;;;;;5052096;28;20511;-66
2022/10/14 03:02:26;;;;;;;0.40;0.40;;;9.40;99.90;;;;;;5052380;28;20426;-66
2022/10/14 03:05:14;;;;;;;1.07;1.07;;;9.40;99.90;;;;;;5056328;28;20443;-66
2022/10/14 03:08:02;;;;;;;0.40;0.40;;;9.40;99.90;;;;;;5056144;28;20420;-66
2022/10/14 03:10:50;;;;;;;0.40;0.40;;;9.40;99.90;;;;;;5054929;28;20503;-67
2022/10/14 03:13:40;;;;;;;0.40;0.40;;;9.50;99.90;;;;;;5056987;28;20531;-67
2022/10/14 03:16:28;;;;;;;0.40;0.40;;;9.50;99.90;;;;;;5056586;28;20555;-66
2022/10/14 03:19:16;;;;;;;0.40;0.40;;;9.60;99.90;;;;;;5056113;28;20428;-67
2022/10/14 03:22:04;;;;;;;0.40;0.40;;;9.50;99.90;;;;;;5055746;28;20452;-66
2022/10/14 03:24:52;;;;;;;0.40;0.40;;;9.50;99.90;;;;;;5056479;28;20526;-67
2022/10/14 03:27:40;;;;;;;2.30;2.20;;;9.50;99.90;;;;;;5054997;28;20519;-67
2022/10/14 03:30:29;;;;;;;0.40;0.40;;;9.50;99.90;;;;;;5054447;28;20511;-66
2022/10/14 03:33:17;;;;;;;0.40;0.40;;;9.50;99.90;;;;;;5054989;28;20897;-69
2022/10/14 03:36:07;;;;;;;0.40;0.40;;;9.50;99.90;;;;;;5055238;28;20996;-66
2022/10/14 03:38:55;;;;;;;0.70;0.70;;;9.50;99.90;;;;;;5055157;28;20936;-67
2022/10/14 03:41:43;;;;;;;0.40;0.40;;;9.50;99.90;;;;;;5055244;28;20424;-66
2022/10/14 03:44:31;;;;;;;0.40;0.40;;;9.60;99.90;;;;;;5054431;28;20508;-66
2022/10/14 03:47:21;;;;;;;0.40;0.40;;;9.50;99.90;;;;;;5055457;28;20956;-67
2022/10/14 03:50:09;;;;;;;0.40;0.40;;;9.60;99.90;;;;;;5057472;28;20427;-66
2022/10/14 03:52:57;;;;;;;0.40;0.40;;;9.60;99.90;;;;;;5072875;28;20447;-66
2022/10/14 03:55:45;;;;;;;0.40;0.40;;;9.50;99.90;;;;;;5074501;28;20473;-67
2022/10/14 03:58:33;;;;;;;0.40;0.40;;;9.60;99.90;;;;;;5076081;28;20506;-66
2022/10/14 04:01:21;;;;;;;0.40;0.40;;;9.60;99.90;;;;;;5074159;28;20463;-66
2022/10/14 04:04:11;;;;;;;0.57;0.57;;;9.50;99.90;;;;;;5074698;28;20427;-66
2022/10/14 04:06:59;;;;;;;0.40;0.40;;;9.50;99.90;;;;;;5073476;28;20506;-66
2022/10/14 04:09:47;;;;;;;0.40;0.40;;;9.50;99.90;;;;;;5075356;28;21003;-67
2022/10/14 04:12:35;;;;;;;0.50;0.50;;;9.60;99.90;;;;;;5073167;28;20510;-69
2022/10/14 04:15:23;;;;;;;0.40;0.40;;;9.60;99.90;;;;;;5072495;28;20830;-66
2022/10/14 04:18:11;;;;;;;0.40;0.40;;;9.60;99.90;;;;;;5073406;28;20463;-66
2022/10/14 04:21:04;;;;;;;0.40;0.40;;;9.60;99.90;;;;;;5073774;28;20502;-66
2022/10/14 04:23:52;;;;;;;0.40;0.40;;;9.60;99.90;;;;;;5073349;28;20427;-66
2022/10/14 04:26:40;;;;;;;0.40;0.40;;;9.70;99.90;;;;;;5074579;28;20526;-66
2022/10/14 04:29:28;;;;;;;0.40;0.40;;;9.60;99.90;;;;;;5073590;28;20879;-66
2022/10/14 04:32:16;;;;;;;0.40;0.40;;;9.60;99.90;;;;;;5073637;28;20411;-66
2022/10/14 04:35:05;;;;;;;0.40;0.40;;;9.60;99.90;;;;;;5073760;28;20489;-66
2022/10/14 04:37:54;;;;;;;0.40;0.40;;;9.60;99.90;;;;;;5073360;28;20915;-66
2022/10/14 04:40:44;;;;;;;0.40;0.40;;;9.70;99.90;;;;;;5073551;28;20565;-66
2022/10/14 04:43:32;;;;;;;0.40;0.40;;;9.70;99.90;;;;;;5074420;28;20506;-66
2022/10/14 04:46:21;;;;;;;0.40;0.40;;;9.70;99.90;;;;;;5073060;28;20936;-66
2022/10/14 04:49:09;;;;;;;0.40;0.40;;;9.70;99.90;;;;;;5072682;28;20514;-65
2022/10/14 04:51:57;;;;;;;0.40;0.40;;;9.70;99.90;;;;;;5055026;28;20430;-68
2022/10/14 04:54:46;;;;;;;0.40;0.40;;;9.70;99.90;;;;;;5053887;28;20448;-67
2022/10/14 04:57:35;;;;;;;0.40;0.40;;;9.70;99.90;;;;;;5053915;28;20492;-68
2022/10/14 05:00:23;;;;;;;0.40;0.40;;;9.70;99.90;;;;;;5053474;28;20915;-67
2022/10/14 05:03:11;;;;;;;0.40;0.40;;;9.70;99.90;;;;;;5053085;28;20498;-67
2022/10/14 05:05:59;;;;;;;0.40;0.40;;;9.70;99.90;;;;;;5053706;28;20827;-68
2022/10/14 05:08:47;;;;;;;0.40;0.40;;;9.80;99.90;;;;;;5053342;28;20507;-67
2022/10/14 05:11:37;;;;;;;0.40;0.40;;;9.70;99.90;;;;;;5053990;28;20448;-66
2022/10/14 05:14:25;;;;;;;0.40;0.40;;;9.70;99.90;;;;;;5064746;28;20424;-67
2022/10/14 05:17:13;;;;;;;0.40;0.40;;;9.70;99.90;;;;;;5069356;28;20463;-68
2022/10/14 05:20:01;;;;;;;0.40;0.40;;;9.70;99.90;;;;;;5054635;28;20428;-67
2022/10/14 05:22:49;;;;;;;0.40;0.40;;;9.80;99.90;;;;;;5053233;28;20879;-67
2022/10/14 05:25:37;;;;;;;0.40;0.40;;;9.70;99.90;;;;;;5052616;28;20940;-68
2022/10/14 05:28:26;;;;;;;0.40;0.40;;;9.80;99.90;;;;;;5053543;28;20944;-67
2022/10/14 05:31:14;;;;;;;0.40;0.40;;;9.80;99.90;;;;;;5053360;28;20429;-67
2022/10/14 05:34:03;;;;;;;0.40;0.40;;;9.80;99.90;;;;;;5052182;28;20424;-67
2022/10/14 05:36:51;;;;;;;0.40;0.40;;;9.70;99.90;;;;;;5053221;28;20464;-67
2022/10/14 05:39:39;;;;;;;0.40;0.40;;;9.80;99.90;;;;;;5053086;28;20519;-68
2022/10/14 05:42:27;;;;;;;0.40;0.40;;;9.90;99.90;;;;;;5064527;28;20881;-68
2022/10/14 05:45:16;;;;;;;0.40;0.40;;;9.80;99.90;;;;;;5070081;28;20447;-67
2022/10/14 05:48:05;;;;;;;0.40;0.40;;;9.90;99.90;;;;;;5055243;28;20423;-67
2022/10/14 05:50:54;;;;;;;0.40;0.40;;;9.80;99.90;;;;;;5055727;28;20515;-68
2022/10/14 05:53:42;;;;;;;0.40;0.40;;;9.90;99.90;;;;;;5076211;28;20528;-68
2022/10/14 05:56:30;;;;;;;0.40;0.40;;;9.90;99.90;;;;;;5077269;28;20495;-68
2022/10/14 05:59:18;;;;;;;0.40;0.40;;;9.80;99.90;;;;;;5082322;28;20507;-68
2022/10/14 06:02:09;;;;;;;0.40;0.40;;;9.80;99.90;;;;;;5069030;28;20424;-68
2022/10/14 06:04:57;;;;;;;0.40;0.40;;;10.00;99.90;;;;;;5079062;28;20435;-66
2022/10/14 06:07:45;;;;;;;0.40;0.40;;;10.00;99.90;;;;;;5082301;28;20419;-68
2022/10/14 06:10:34;;;;;;;0.40;0.40;;;10.00;99.90;;;;;;5077658;28;20457;-67
2022/10/14 06:13:23;;;;;;;0.40;0.40;;;10.00;99.90;;;;;;5075022;28;20431;-68
2022/10/14 06:16:11;;;;;;;0.40;0.40;;;10.10;99.90;;;;;;5081958;28;20432;-67
2022/10/14 06:19:00;;;;;;;0.40;0.40;;;10.10;99.90;;;;;;5064087;28;20846;-68
2022/10/14 06:21:48;;;;;;;0.60;0.60;;;10.10;99.90;;;;;;5064044;28;20452;-68
2022/10/14 06:24:36;;;;;;;0.40;0.40;;;10.20;99.90;;;;;;5063355;28;20482;-67
2022/10/14 06:27:24;;;;;;;0.40;0.40;;;10.30;99.90;;;;;;5063173;28;20510;-67
2022/10/14 06:30:14;;;;;;;0.40;0.40;;;10.30;99.90;;;;;;5078044;28;20504;-67
2022/10/14 06:33:03;;;;;;;0.40;0.40;;;10.30;99.90;;;;;;5080598;28;20477;-68
2022/10/14 06:35:53;;;;;;;0.40;0.40;;;10.30;99.90;;;;;;5074796;28;20829;-67
2022/10/14 06:38:41;;;;;;;0.40;0.40;;;10.40;99.90;;;;;;5075471;28;20529;-67
2022/10/14 06:41:29;;;;;;;0.40;0.40;;;10.40;99.90;;;;;;5076091;28;20427;-68
2022/10/14 06:44:17;;;;;;;0.40;0.40;;;10.50;99.90;;;;;;5075044;28;20514;-68
2022/10/14 06:47:06;;;;;;;0.40;0.40;;;10.50;99.90;;;;;;5076427;28;20419;-67
2022/10/14 06:49:54;;;;;;;0.40;0.40;;;10.60;99.90;;;;;;5074666;28;20423;-67
2022/10/14 06:52:46;;;;;;;0.40;0.40;;;10.70;99.90;;;;;;5075016;28;20510;-67
2022/10/14 06:55:34;;;;;;;0.40;0.40;;;10.60;99.90;;;;;;5075814;28;20458;-68
2022/10/14 06:58:22;;;;;;;0.40;0.40;;;10.70;99.90;;;;;;5074766;28;20466;-68
2022/10/14 07:01:10;;;;;;;0.40;0.40;;;10.80;99.90;;;;;;5075402;28;20523;-68
2022/10/14 07:03:59;;;;;;;0.40;0.40;;;10.90;99.90;;;;;;5077724;28;20427;-68
2022/10/14 07:06:47;;;;;;;0.40;0.40;;;10.90;99.90;;;;;;5061437;28;20432;-69
2022/10/14 07:09:36;;;;;;;0.40;0.40;;;11.00;99.90;;;;;;5058622;28;20970;-66
2022/10/14 07:12:25;;;;;;;0.40;0.40;;;11.00;99.90;;;;;;5069161;28;20498;-68
2022/10/14 07:15:13;;;;;;;0.40;0.40;;;11.10;99.90;;;;;;5060127;28;20526;-67
2022/10/14 07:18:01;;;;;;;0.50;0.50;;;11.10;99.90;;;;;;5064340;28;20470;-66
2022/10/14 07:20:49;;;;;;;2.03;1.90;;;11.10;99.90;;;;;;5064685;28;20521;-67
2022/10/14 07:23:37;;;;;;;0.40;0.40;;;11.20;99.90;;;;;;5058892;28;20444;-67
2022/10/14 07:26:26;;;;;;;0.40;0.40;;;11.30;99.90;;;;;;5055798;28;20475;-67
2022/10/14 07:29:14;;;;;;;0.40;0.40;;;11.30;99.90;;;;;;5055042;28;20420;-66
2022/10/14 07:32:02;;;;;;;0.40;0.40;;;11.40;99.90;;;;;;5055145;28;20431;-66
2022/10/14 07:34:51;;;;;;;0.40;0.40;;;11.50;99.90;;;;;;5054820;28;20538;-66
2022/10/14 07:37:40;;;;;;;0.40;0.40;;;11.60;99.90;;;;;;5054289;28;20456;-67
2022/10/14 07:40:28;;;;;;;0.40;0.40;;;11.70;99.90;;;;;;5070730;28;21148;-67
2022/10/14 07:43:17;;;;;;;0.43;0.43;;;11.80;99.90;;;;;;5073053;28;20477;-66
2022/10/14 07:46:07;;;;;;;0.40;0.40;;;11.90;99.90;;;;;;5072945;28;20548;-67
2022/10/14 07:48:56;;;;;;;0.40;0.40;;;11.90;99.90;;;;;;5074376;28;20455;-67
2022/10/14 07:51:46;;;;;;;0.40;0.40;;;12.00;99.90;;;;;;5056198;28;20448;-67
2022/10/14 07:54:34;;;;;;;0.40;0.40;;;12.20;99.90;;;;;;5055875;28;20444;-67
2022/10/14 07:57:22;;;;;;;0.40;0.40;;;12.20;99.90;;;;;;5054518;28;20495;-67
2022/10/14 08:00:13;;;;;;;0.40;0.40;;;12.20;99.90;;;;;;5056052;28;20429;-67
2022/10/14 08:03:01;;;;;;;0.40;0.40;;;12.40;99.90;;;;;;5068991;28;20471;-67
2022/10/14 08:05:49;;;;;;;0.40;0.40;;;12.50;99.90;;;;;;5075123;28;20533;-66
2022/10/14 08:08:38;;;;;;;0.40;0.40;;;12.60;99.90;;;;;;5067306;28;20437;-68
2022/10/14 08:11:28;;;;;;;0.40;0.40;;;12.60;99.90;;;;;;5074821;28;20502;-68
2022/10/14 08:14:16;;;;;;;0.40;0.40;;;12.70;99.90;;;;;;5062537;28;20523;-67
2022/10/14 08:17:06;;;;;;;0.40;0.40;;;12.90;99.90;;;;;;5072523;28;20569;-66
2022/10/14 08:19:54;;;;;;;0.40;0.40;;;13.00;99.90;;;;;;5073008;28;20427;-67
2022/10/14 08:22:42;;;;;;;0.40;0.40;;;13.00;99.90;;;;;;5053717;28;20433;-67
2022/10/14 08:25:30;;;;;;;0.40;0.40;;;13.00;99.90;;;;;;5054298;28;20459;-66
2022/10/14 08:28:18;;;;;;;0.60;0.60;;;13.20;99.90;;;;;;5053351;28;20515;-67
2022/10/14 08:31:06;;;;;;;0.40;0.40;;;13.30;99.90;;;;;;5053677;28;20433;-67
2022/10/14 08:33:56;;;;;;;0.40;0.40;;;13.40;99.90;;;;;;5053577;28;21001;-67
2022/10/14 08:36:45;;;;;;;3.03;2.73;;;13.40;99.90;;;;;;5054684;28;20489;-67
2022/10/14 08:39:33;;;;;;;0.40;0.40;;;13.40;99.90;;;;;;5077397;28;20470;-67
2022/10/14 08:42:32;;;;;;;0.40;0.40;;;13.60;99.90;;;;;;5064832;28;20530;-67
2022/10/14 08:45:27;;;;;;;0.60;0.60;;;13.60;99.90;;;;;;5063516;28;20440;-68
2022/10/14 08:48:19;;;;;;;0.40;0.40;;;13.70;99.90;;;;;;5053178;28;20981;-67
2022/10/14 08:51:12;;;;;;;0.50;0.50;;;13.80;99.90;;;;;;5052732;28;20524;-68
2022/10/14 08:54:07;;;;;;;0.40;0.40;;;13.90;99.90;;;;;;5052871;28;20562;-68
2022/10/14 08:56:56;;;;;;;0.40;0.40;;;13.90;99.90;;;;;;5053183;28;20815;-67
2022/10/14 08:59:45;;;;;;;0.40;0.40;;;13.90;99.90;;;;;;5051313;28;20467;-68
2022/10/14 09:02:42;;;;;;;0.40;0.40;;;14.00;99.90;;;;;;5052150;28;20425;-68
2022/10/14 09:05:30;;;;;;;0.40;0.40;;;14.10;99.90;;;;;;5052356;28;20452;-68
2022/10/14 09:08:27;;;;;;;0.40;0.40;;;14.10;99.90;;;;;;5051833;28;20801;-68
2022/10/14 09:11:17;;;;;;;0.40;0.40;;;14.20;99.90;;;;;;5052044;28;20422;-68
2022/10/14 09:14:09;;;;;;;0.40;0.40;;;14.30;99.90;;;;;;5053730;28;20451;-68
2022/10/14 09:17:05;;;;;;;0.40;0.40;;;14.40;99.90;;;;;;5052449;28;20507;-68
2022/10/14 09:20:01;;;;;;;0.40;0.40;;;14.40;99.90;;;;;;5052336;28;20460;-68
2022/10/14 09:22:58;;;;;;;2.40;1.97;;;14.50;99.90;;;;;;5052899;28;20416;-68
2022/10/14 09:25:55;;;;;;;0.90;0.90;;;14.50;99.90;;;;;;5053428;28;20452;-68
2022/10/14 09:28:44;;;;;;;0.40;0.40;;;14.60;99.90;;;;;;5052915;28;20412;-68
2022/10/14 09:31:33;;;;;;;0.40;0.40;;;14.70;99.90;;;;;;5052517;28;20432;-68
2022/10/14 09:34:32;;;;;;;0.40;0.40;;;14.70;99.90;;;;;;5053385;28;20442;-68
2022/10/14 09:37:27;;;;;;;0.40;0.40;;;14.70;99.90;;;;;;5055794;28;20867;-68
2022/10/14 09:40:20;;;;;;;0.40;0.40;;;14.70;99.90;;;;;;5062914;28;20597;-67
2022/10/14 09:43:15;;;;;;;0.40;0.40;;;14.80;99.90;;;;;;5073487;28;20420;-68
2022/10/14 09:46:06;;;;;;;0.40;0.40;;;14.70;99.90;;;;;;5061449;28;20523;-68
2022/10/14 09:48:55;;;;;;;0.40;0.40;;;14.70;99.90;;;;;;5069524;28;20944;-68
2022/10/14 09:51:43;;;;;;;0.40;0.40;;;14.80;99.90;;;;;;5060226;28;20518;-68
2022/10/14 09:54:32;;;;;;;0.40;0.40;;;14.90;99.90;;;;;;5051994;28;20422;-67
2022/10/14 09:57:21;;;;;;;0.40;0.40;;;15.00;99.90;;;;;;5052267;28;20439;-68
2022/10/14 10:00:27;;;;;;;0.40;0.40;;;15.10;99.90;;;;;;5053061;28;20460;-68
2022/10/14 10:03:26;;;;;;;0.57;0.57;;;15.20;99.90;;;;;;5052319;28;20538;-68
2022/10/14 10:06:17;;;;;;;0.40;0.40;;;15.40;99.90;;;;;;5052748;28;20763;-68
2022/10/14 10:09:05;;;;;;;0.40;0.40;;;15.50;99.90;;;;;;5052738;28;20978;-67
2022/10/14 10:11:54;;;;;;;0.50;0.50;;;15.50;99.90;;;;;;5052008;28;20441;-67
2022/10/14 10:14:56;;;;;;;0.40;0.40;;;15.70;99.90;;;;;;5069376;28;20479;-67
2022/10/14 10:17:46;;;;;;;0.40;0.40;;;15.80;99.90;;;;;;5069718;28;20287;-67
2022/10/14 10:20:34;;;;;;;0.40;0.40;;;15.70;99.90;;;;;;5072222;28;20318;-67
2022/10/14 10:23:25;;;;;;;0.40;0.40;;;15.70;99.90;;;;;;5074234;28;20419;-68
2022/10/14 10:26:20;;;;;;;0.40;0.40;;;15.70;99.90;;;;;;5073968;28;20227;-67
2022/10/14 10:29:23;;;;;;;2.43;2.23;;;15.60;99.90;;;;;;5073533;28;20196;-69
2022/10/14 10:32:16;;;;;;;0.40;0.40;;;15.60;99.90;;;;;;5067485;28;20275;-67
2022/10/14 10:35:19;;;;;;;0.40;0.40;;;15.60;99.90;;;;;;5051131;28;20787;-67
2022/10/14 10:38:19;;;;;;;0.40;0.40;;;15.50;99.90;;;;;;5063762;28;20530;-67
2022/10/14 10:41:26;;;;;;;0.40;0.40;;;15.50;99.90;;;;;;5072523;28;20293;-67
2022/10/14 10:44:39;;;;;;;0.40;0.40;;;15.50;99.90;;;;;;5053740;28;20205;-67
2022/10/14 10:47:35;;;;;;;0.40;0.40;;;15.60;99.90;;;;;;5052466;28;20208;-67
2022/10/14 10:50:31;;;;;;;0.37;0.37;;;15.70;99.90;;;;;;5051916;28;20328;-67
2022/10/14 10:53:52;;;;;;;0.40;0.40;;;15.80;99.90;;;;;;5056742;28;20284;-69
2022/10/14 10:56:45;;;;;;;0.40;0.40;;;16.00;99.90;;;;;;5062752;28;20582;-68
2022/10/14 10:59:56;;;;;;;0.40;0.40;;;16.00;99.90;;;;;;5067513;28;20264;-67
2022/10/14 11:02:54;;;;;;;1.10;1.07;;;16.20;99.90;;;;;;5061886;28;20543;-67
2022/10/14 11:05:54;;;;;;;0.73;0.73;;;16.20;99.90;;;;;;5069643;28;20221;-67
2022/10/14 11:12:19;;;;;;;0.43;0.43;;;16.40;99.90;;;;;;5072683;28;20342;-67
2022/10/14 11:15:23;;;;;;;0.50;0.50;;;16.40;99.90;;;;;;5070605;28;20224;-68
2022/10/14 11:18:19;;;;;;;0.40;0.40;;;16.40;99.90;;;;;;5071322;28;20253;-67
2022/10/14 11:21:15;;;;;;;1.40;1.35;;;16.50;99.90;;;;;;5071719;28;20307;-67
2022/10/14 11:24:11;;;;;;;0.50;0.50;;;16.70;99.90;;;;;;5073309;28;20201;-67
2022/10/14 11:27:07;;;;;;;0.40;0.40;;;16.70;99.90;;;;;;5075635;28;20193;-68
2022/10/14 11:30:13;;;;;;;0.40;0.40;;;16.80;99.90;;;;;;5077916;28;20201;-67
2022/10/14 11:33:21;;;;;;;0.40;0.40;;;16.90;99.90;;;;;;5076221;28;20634;-68
2022/10/14 11:36:22;;;;;;;0.93;0.93;;;17.00;99.90;;;;;;5075638;28;20220;-68
2022/10/14 11:39:25;;;;;;;0.65;0.65;;;17.00;99.90;;;;;;5076701;28;20331;-67
2022/10/14 11:42:30;;;;;;;0.40;0.40;;;17.00;99.90;;;;;;5077095;28;20204;-68
2022/10/14 11:45:47;;;;;;;0.40;0.40;;;17.00;99.90;;;;;;5075392;28;20230;-67
2022/10/14 11:48:41;;;;;;;0.40;0.40;;;17.00;99.90;;;;;;5074285;28;20205;-67
2022/10/14 11:51:36;;;;;;;0.40;0.40;;;16.90;99.90;;;;;;5060031;28;20205;-67
2022/10/14 11:54:30;;;;;;;0.40;0.40;;;16.90;99.90;;;;;;5055305;28;20242;-67
2022/10/14 11:57:24;;;;;;;1.10;1.10;;;16.90;99.90;;;;;;5055381;28;20316;-67
2022/10/14 12:00:32;;;;;;;0.40;0.40;;;16.80;99.90;;;;;;5054202;28;20221;-67
2022/10/14 12:03:27;;;;;;;0.40;0.40;;;16.80;99.90;;;;;;5054862;28;20248;-67
2022/10/14 12:06:18;;;;;;;0.40;0.40;;;16.80;99.90;;;;;;5055141;28;20218;-67
2022/10/14 12:09:16;;;;;;;0.40;0.40;;;16.80;99.90;;;;;;5055485;28;20613;-68
2022/10/14 12:12:08;;;;;;;0.40;0.40;;;16.90;99.90;;;;;;5055008;28;20201;-67
2022/10/14 12:15:00;;;;;;;0.40;0.40;;;16.80;99.90;;;;;;5069121;28;20237;-68
2022/10/14 12:17:53;;;;;;;0.40;0.40;;;16.80;99.90;;;;;;5066432;28;20201;-68
2022/10/14 12:20:46;;;;;;;0.40;0.40;;;16.80;99.90;;;;;;5055141;28;20222;-68
2022/10/14 12:23:39;;;;;;;0.40;0.40;;;16.90;99.90;;;;;;5054245;28;20232;-67
2022/10/14 12:26:49;;;;;;;0.40;0.40;;;17.10;99.90;;;;;;5055074;28;20220;-68
2022/10/14 12:29:41;;;;;;;0.40;0.40;;;17.40;99.90;;;;;;5054394;28;20209;-68
2022/10/14 12:32:30;;;;;;;0.40;0.40;;;17.50;99.90;;;;;;5052984;28;20237;-67
2022/10/14 12:35:53;;;;;;;0.40;0.40;;;17.50;99.90;;;;;;5053088;28;20407;-68
2022/10/14 12:38:41;;;;;;;0.85;0.85;;;17.60;99.90;;;;;;5053698;28;20198;-68
2022/10/14 12:41:42;;;;;;;0.40;0.40;;;17.60;99.90;;;;;;5053669;28;20731;-68
2022/10/14 12:44:41;;;;;;;0.40;0.40;;;17.60;99.90;;;;;;5054501;28;20243;-68
2022/10/14 12:47:33;;;;;;;0.40;0.40;;;17.70;99.90;;;;;;5054498;28;20288;-68
2022/10/14 12:50:29;;;;;;;0.40;0.40;;;17.60;99.90;;;;;;5053737;28;20559;-68
2022/10/14 12:53:23;;;;;;;0.40;0.40;;;17.60;99.90;;;;;;5051995;28;20581;-67
2022/10/14 12:56:28;;;;;;;0.40;0.40;;;17.60;99.90;;;;;;5056950;28;20243;-67
2022/10/14 12:59:24;;;;;;;0.40;0.40;;;17.60;99.90;;;;;;5051984;28;20193;-68
2022/10/14 13:02:20;;;;;;;1.42;1.42;;;17.70;99.90;;;;;;5052479;28;20306;-67
2022/10/14 13:05:22;;;;;;;0.40;0.40;;;17.70;99.90;;;;;;5052641;28;20221;-67
2022/10/14 13:08:13;;;;;;;0.40;0.40;;;17.90;99.90;;;;;;5054108;28;20207;-67
2022/10/14 13:11:12;;;;;;;0.40;0.40;;;17.90;99.90;;;;;;5052922;28;20193;-67
2022/10/14 13:14:01;;;;;;;0.40;0.40;;;18.10;99.90;;;;;;5052587;28;20197;-68
2022/10/14 13:16:58;;;;;;;0.40;0.40;;;18.20;99.90;;;;;;5053083;28;20208;-68
2022/10/14 13:19:47;;;;;;;0.40;0.40;;;18.30;99.90;;;;;;5052308;28;20276;-68
2022/10/14 13:22:39;;;;;;;0.40;0.40;;;18.20;99.90;;;;;;5052637;28;20628;-68
2022/10/14 13:25:28;;;;;;;0.40;0.40;;;18.20;99.90;;;;;;5052374;28;20324;-68
2022/10/14 13:28:25;;;;;;;1.23;0.95;;;18.20;99.90;;;;;;5052983;28;20260;-68
2022/10/14 13:31:21;;;;;;;0.40;0.40;;;18.20;99.90;;;;;;5061166;28;20272;-68
2022/10/14 13:34:21;;;;;;;0.50;0.50;;;18.10;99.90;;;;;;5072475;28;20282;-68
2022/10/14 13:37:27;;;;;;;0.63;0.63;;;18.20;99.90;;;;;;5073264;28;20288;-68
2022/10/14 13:40:26;;;;;;;0.40;0.40;;;18.30;99.90;;;;;;5073352;28;20612;-68
2022/10/14 13:43:18;;;;;;;0.40;0.40;;;18.30;99.90;;;;;;5074270;28;20228;-68
2022/10/14 13:46:11;;;;;;;0.40;0.40;;;18.20;99.90;;;;;;5074328;28;20248;-67
2022/10/14 13:49:02;;;;;;;0.40;0.40;;;18.00;99.90;;;;;;5073463;28;20432;-68
2022/10/14 13:51:55;;;;;;;0.40;0.40;;;17.90;99.90;;;;;;5056115;28;20201;-68
2022/10/14 13:54:43;;;;;;;0.40;0.40;;;17.80;99.90;;;;;;5053234;28;20222;-68
2022/10/14 13:57:31;;;;;;;0.40;0.40;;;17.70;99.90;;;;;;5053153;28;20223;-68
2022/10/14 14:00:42;;;;;;;0.40;0.40;;;17.70;99.90;;;;;;5053297;28;20213;-68
2022/10/14 14:03:34;;;;;;;0.40;0.40;;;17.80;99.90;;;;;;5052065;28;20201;-68
2022/10/14 14:06:24;;;;;;;0.40;0.40;;;17.90;99.90;;;;;;5053073;28;20221;-68
2022/10/14 14:09:19;;;;;;;0.40;0.40;;;18.70;99.90;;;;;;5052832;28;20231;-68
2022/10/14 14:12:07;;;;;;;0.40;0.40;;;19.20;99.90;;;;;;5051720;28;20208;-68
2022/10/14 14:14:59;;;;;;;0.70;0.70;;;19.20;99.90;;;;;;5053325;28;20314;-68
2022/10/14 14:17:47;;;;;;;0.65;0.65;;;19.10;99.90;;;;;;5052466;28;20292;-68
2022/10/14 14:20:37;;;;;;;0.40;0.40;;;18.80;99.90;;;;;;5052200;28;20310;-68
2022/10/14 14:23:25;;;;;;;0.40;0.40;;;18.60;99.90;;;;;;5052880;28;20234;-68
2022/10/14 14:26:15;;;;;;;0.40;0.40;;;18.40;99.90;;;;;;5053102;28;20308;-68
2022/10/14 14:29:13;;;;;;;0.40;0.40;;;19.00;99.90;;;;;;5051116;28;20223;-68
2022/10/14 14:32:03;;;;;;;0.40;0.40;;;20.60;99.90;;;;;;5052025;28;20202;-68
2022/10/14 14:34:55;;;;;;;0.40;0.40;;;20.90;99.90;;;;;;5053335;28;20220;-69
2022/10/14 14:37:45;;;;;;;0.95;0.95;;;20.50;99.90;;;;;;5053789;28;20204;-68
2022/10/14 14:40:43;;;;;;;0.40;0.40;;;20.10;99.90;;;;;;5054303;28;20213;-68
2022/10/14 14:43:35;;;;;;;0.40;0.40;;;19.40;99.90;;;;;;5053181;28;20198;-68
2022/10/14 14:46:33;;;;;;;0.40;0.40;;;18.90;99.90;;;;;;5053431;28;20598;-68
2022/10/14 14:49:27;;;;;;;0.40;0.40;;;18.80;99.90;;;;;;5053314;28;20280;-68
2022/10/14 14:52:15;;;;;;;0.40;0.40;;;18.80;99.90;;;;;;5073305;28;20193;-68
2022/10/14 14:55:04;;;;;;;0.40;0.40;;;18.70;99.90;;;;;;5072716;28;20263;-67
2022/10/14 14:57:56;;;;;;;0.40;0.40;;;18.50;99.90;;;;;;5071255;28;20334;-67
2022/10/14 15:00:46;;;;;;;0.40;0.40;;;18.30;99.90;;;;;;5073867;28;20232;-67
2022/10/14 15:03:51;;;;;;;0.40;0.40;;;18.30;99.90;;;;;;5075259;28;20246;-67